sensor_id;sensor_type;location;lat;lon;timestamp;P1;durP1;ratioP1;P2;durP2;ratioP2
29504;SDS011;16452;54.174;12.092;2022-08-06T00:01:53;8.68;;;1.30;;
29504;SDS011;16452;54.174;12.092;2022-08-06T00:04:19;4.20;;;0.93;;
29504;SDS011;16452;54.174;12.092;2022-08-06T00:06:47;1.85;;;0.70;;
29504;SDS011;16452;54.174;12.092;2022-08-06T00:09:13;1.55;;;0.90;;
29504;SDS011;16452;54.174;12.092;2022-08-06T00:11:39;3.40;;;0.88;;
29504;SDS011;16452;54.174;12.092;2022-08-06T00:14:05;4.63;;;0.90;;
29504;SDS011;16452;54.174;12.092;2022-08-06T00:16:31;5.63;;;1.38;;
29504;SDS011;16452;54.174;12.092;2022-08-06T00:18:57;4.95;;;1.10;;
29504;SDS011;16452;54.174;12.092;2022-08-06T00:21:23;3.35;;;1.15;;
29504;SDS011;16452;54.174;12.092;2022-08-06T00:23:49;3.72;;;0.90;;
29504;SDS011;16452;54.174;12.092;2022-08-06T00:26:15;6.07;;;1.17;;
29504;SDS011;16452;54.174;12.092;2022-08-06T00:28:40;2.28;;;0.88;;
29504;SDS011;16452;54.174;12.092;2022-08-06T00:31:06;3.58;;;0.82;;
29504;SDS011;16452;54.174;12.092;2022-08-06T00:33:35;4.80;;;0.95;;
29504;SDS011;16452;54.174;12.092;2022-08-06T00:36:01;2.78;;;0.88;;
29504;SDS011;16452;54.174;12.092;2022-08-06T00:38:27;4.15;;;0.88;;
29504;SDS011;16452;54.174;12.092;2022-08-06T00:40:53;3.55;;;1.00;;
29504;SDS011;16452;54.174;12.092;2022-08-06T00:43:19;3.38;;;0.70;;
29504;SDS011;16452;54.174;12.092;2022-08-06T00:45:45;5.05;;;1.00;;
29504;SDS011;16452;54.174;12.092;2022-08-06T00:48:11;2.60;;;0.90;;
29504;SDS011;16452;54.174;12.092;2022-08-06T00:50:39;2.85;;;0.93;;
29504;SDS011;16452;54.174;12.092;2022-08-06T00:53:05;2.50;;;0.80;;
29504;SDS011;16452;54.174;12.092;2022-08-06T00:55:30;3.88;;;0.70;;
29504;SDS011;16452;54.174;12.092;2022-08-06T00:57:57;2.35;;;0.75;;
29504;SDS011;16452;54.174;12.092;2022-08-06T01:00:23;3.65;;;0.80;;
29504;SDS011;16452;54.174;12.092;2022-08-06T01:02:49;2.10;;;1.02;;
29504;SDS011;16452;54.174;12.092;2022-08-06T01:05:14;2.78;;;0.90;;
29504;SDS011;16452;54.174;12.092;2022-08-06T01:07:40;3.78;;;1.23;;
29504;SDS011;16452;54.174;12.092;2022-08-06T01:10:06;2.22;;;0.93;;
29504;SDS011;16452;54.174;12.092;2022-08-06T01:12:32;4.55;;;0.80;;
29504;SDS011;16452;54.174;12.092;2022-08-06T01:14:58;3.45;;;0.90;;
29504;SDS011;16452;54.174;12.092;2022-08-06T01:17:26;1.85;;;0.80;;
29504;SDS011;16452;54.174;12.092;2022-08-06T01:20:12;3.92;;;0.98;;
29504;SDS011;16452;54.174;12.092;2022-08-06T01:29:29;4.40;;;1.10;;
29504;SDS011;16452;54.174;12.092;2022-08-06T01:34:41;5.30;;;1.00;;
29504;SDS011;16452;54.174;12.092;2022-08-06T01:39:48;3.28;;;0.90;;
29504;SDS011;16452;54.174;12.092;2022-08-06T01:42:20;2.72;;;0.80;;
29504;SDS011;16452;54.174;12.092;2022-08-06T01:44:47;3.67;;;0.90;;
29504;SDS011;16452;54.174;12.092;2022-08-06T01:47:15;3.08;;;1.00;;
29504;SDS011;16452;54.174;12.092;2022-08-06T01:49:46;7.22;;;1.17;;
29504;SDS011;16452;54.174;12.092;2022-08-06T01:52:17;2.78;;;0.98;;
29504;SDS011;16452;54.174;12.092;2022-08-06T01:54:45;5.82;;;1.30;;
29504;SDS011;16452;54.174;12.092;2022-08-06T01:57:15;1.75;;;0.93;;
29504;SDS011;16452;54.174;12.092;2022-08-06T01:59:45;3.88;;;1.00;;
29504;SDS011;16452;54.174;12.092;2022-08-06T02:02:16;6.43;;;0.90;;
29504;SDS011;16452;54.174;12.092;2022-08-06T02:04:46;3.85;;;1.10;;
29504;SDS011;16452;54.174;12.092;2022-08-06T02:07:16;3.75;;;0.77;;
29504;SDS011;16452;54.174;12.092;2022-08-06T02:10:00;4.43;;;1.00;;
29504;SDS011;16452;54.174;12.092;2022-08-06T02:12:29;3.53;;;1.10;;
29504;SDS011;16452;54.174;12.092;2022-08-06T02:15:02;2.88;;;0.80;;
29504;SDS011;16452;54.174;12.092;2022-08-06T02:17:39;6.38;;;1.05;;
29504;SDS011;16452;54.174;12.092;2022-08-06T02:20:11;7.47;;;1.00;;
29504;SDS011;16452;54.174;12.092;2022-08-06T02:22:40;6.00;;;1.30;;
29504;SDS011;16452;54.174;12.092;2022-08-06T02:25:09;5.15;;;0.93;;
29504;SDS011;16452;54.174;12.092;2022-08-06T02:27:41;2.85;;;1.00;;
29504;SDS011;16452;54.174;12.092;2022-08-06T02:30:14;5.60;;;1.02;;
29504;SDS011;16452;54.174;12.092;2022-08-06T02:32:40;4.40;;;0.93;;
29504;SDS011;16452;54.174;12.092;2022-08-06T02:35:07;3.88;;;1.10;;
29504;SDS011;16452;54.174;12.092;2022-08-06T02:37:38;5.57;;;1.08;;
29504;SDS011;16452;54.174;12.092;2022-08-06T02:40:11;5.18;;;1.08;;
29504;SDS011;16452;54.174;12.092;2022-08-06T02:42:55;2.90;;;1.08;;
29504;SDS011;16452;54.174;12.092;2022-08-06T02:45:38;5.35;;;1.20;;
29504;SDS011;16452;54.174;12.092;2022-08-06T02:48:37;3.72;;;1.13;;
29504;SDS011;16452;54.174;12.092;2022-08-06T02:51:14;4.07;;;1.25;;
29504;SDS011;16452;54.174;12.092;2022-08-06T02:53:59;5.07;;;1.42;;
29504;SDS011;16452;54.174;12.092;2022-08-06T02:56:31;10.35;;;1.88;;
29504;SDS011;16452;54.174;12.092;2022-08-06T02:58:59;8.18;;;1.30;;
29504;SDS011;16452;54.174;12.092;2022-08-06T03:01:28;2.67;;;0.80;;
29504;SDS011;16452;54.174;12.092;2022-08-06T03:03:58;5.05;;;1.00;;
29504;SDS011;16452;54.174;12.092;2022-08-06T03:06:28;5.32;;;1.20;;
29504;SDS011;16452;54.174;12.092;2022-08-06T03:08:59;5.47;;;0.95;;
29504;SDS011;16452;54.174;12.092;2022-08-06T03:11:28;3.17;;;0.90;;
29504;SDS011;16452;54.174;12.092;2022-08-06T03:14:01;3.05;;;0.77;;
29504;SDS011;16452;54.174;12.092;2022-08-06T03:16:31;3.67;;;1.10;;
29504;SDS011;16452;54.174;12.092;2022-08-06T03:19:02;3.67;;;0.77;;
29504;SDS011;16452;54.174;12.092;2022-08-06T03:21:29;1.25;;;0.70;;
29504;SDS011;16452;54.174;12.092;2022-08-06T03:23:57;3.72;;;1.00;;
29504;SDS011;16452;54.174;12.092;2022-08-06T03:26:25;2.63;;;0.80;;
29504;SDS011;16452;54.174;12.092;2022-08-06T03:28:56;7.55;;;1.10;;
29504;SDS011;16452;54.174;12.092;2022-08-06T03:31:25;4.55;;;0.88;;
29504;SDS011;16452;54.174;12.092;2022-08-06T03:33:54;5.03;;;0.85;;
29504;SDS011;16452;54.174;12.092;2022-08-06T03:36:21;4.45;;;0.90;;
29504;SDS011;16452;54.174;12.092;2022-08-06T03:38:56;3.70;;;0.80;;
29504;SDS011;16452;54.174;12.092;2022-08-06T03:41:26;2.83;;;0.88;;
29504;SDS011;16452;54.174;12.092;2022-08-06T03:43:57;4.45;;;1.27;;
29504;SDS011;16452;54.174;12.092;2022-08-06T03:46:27;8.10;;;1.10;;
29504;SDS011;16452;54.174;12.092;2022-08-06T03:49:08;2.60;;;0.98;;
29504;SDS011;16452;54.174;12.092;2022-08-06T03:51:39;3.42;;;0.90;;
29504;SDS011;16452;54.174;12.092;2022-08-06T03:54:07;3.47;;;1.52;;
29504;SDS011;16452;54.174;12.092;2022-08-06T03:56:34;9.73;;;3.42;;
29504;SDS011;16452;54.174;12.092;2022-08-06T03:59:02;2.63;;;0.82;;
29504;SDS011;16452;54.174;12.092;2022-08-06T04:01:30;2.47;;;0.90;;
29504;SDS011;16452;54.174;12.092;2022-08-06T04:04:03;4.40;;;0.93;;
29504;SDS011;16452;54.174;12.092;2022-08-06T04:06:29;4.32;;;1.00;;
29504;SDS011;16452;54.174;12.092;2022-08-06T04:08:57;5.90;;;1.10;;
29504;SDS011;16452;54.174;12.092;2022-08-06T04:11:25;3.17;;;1.10;;
29504;SDS011;16452;54.174;12.092;2022-08-06T04:13:52;3.47;;;1.02;;
29504;SDS011;16452;54.174;12.092;2022-08-06T04:16:19;3.90;;;1.08;;
29504;SDS011;16452;54.174;12.092;2022-08-06T04:18:46;4.20;;;1.40;;
29504;SDS011;16452;54.174;12.092;2022-08-06T04:21:21;3.40;;;0.82;;
29504;SDS011;16452;54.174;12.092;2022-08-06T04:23:49;3.67;;;0.80;;
29504;SDS011;16452;54.174;12.092;2022-08-06T04:26:16;3.38;;;1.00;;
29504;SDS011;16452;54.174;12.092;2022-08-06T04:28:48;2.38;;;0.90;;
29504;SDS011;16452;54.174;12.092;2022-08-06T04:31:18;4.45;;;1.70;;
29504;SDS011;16452;54.174;12.092;2022-08-06T04:33:45;2.70;;;0.70;;
29504;SDS011;16452;54.174;12.092;2022-08-06T04:36:12;2.92;;;0.85;;
29504;SDS011;16452;54.174;12.092;2022-08-06T04:38:39;3.40;;;0.82;;
29504;SDS011;16452;54.174;12.092;2022-08-06T04:41:05;4.22;;;1.00;;
29504;SDS011;16452;54.174;12.092;2022-08-06T04:43:32;2.72;;;0.80;;
29504;SDS011;16452;54.174;12.092;2022-08-06T04:45:59;4.93;;;0.98;;
29504;SDS011;16452;54.174;12.092;2022-08-06T04:48:26;4.10;;;1.00;;
29504;SDS011;16452;54.174;12.092;2022-08-06T04:50:52;5.55;;;0.93;;
29504;SDS011;16452;54.174;12.092;2022-08-06T04:53:19;7.82;;;1.20;;
29504;SDS011;16452;54.174;12.092;2022-08-06T04:55:46;2.42;;;0.75;;
29504;SDS011;16452;54.174;12.092;2022-08-06T04:58:13;6.35;;;0.88;;
29504;SDS011;16452;54.174;12.092;2022-08-06T05:00:42;3.08;;;0.80;;
29504;SDS011;16452;54.174;12.092;2022-08-06T05:03:11;2.08;;;0.80;;
29504;SDS011;16452;54.174;12.092;2022-08-06T05:05:51;4.68;;;0.88;;
29504;SDS011;16452;54.174;12.092;2022-08-06T05:08:23;4.28;;;1.13;;
29504;SDS011;16452;54.174;12.092;2022-08-06T05:10:56;5.00;;;1.10;;
29504;SDS011;16452;54.174;12.092;2022-08-06T05:13:31;2.58;;;0.80;;
29504;SDS011;16452;54.174;12.092;2022-08-06T05:16:02;4.70;;;1.10;;
29504;SDS011;16452;54.174;12.092;2022-08-06T05:18:33;8.23;;;1.13;;
29504;SDS011;16452;54.174;12.092;2022-08-06T05:21:09;5.30;;;1.13;;
29504;SDS011;16452;54.174;12.092;2022-08-06T05:23:42;3.65;;;0.88;;
29504;SDS011;16452;54.174;12.092;2022-08-06T05:26:13;3.90;;;0.80;;
29504;SDS011;16452;54.174;12.092;2022-08-06T05:28:40;2.38;;;0.90;;
29504;SDS011;16452;54.174;12.092;2022-08-06T05:31:07;2.08;;;0.82;;
29504;SDS011;16452;54.174;12.092;2022-08-06T05:33:34;3.08;;;0.80;;
29504;SDS011;16452;54.174;12.092;2022-08-06T05:36:03;3.38;;;1.15;;
29504;SDS011;16452;54.174;12.092;2022-08-06T05:38:32;1.77;;;0.88;;
29504;SDS011;16452;54.174;12.092;2022-08-06T05:41:03;6.55;;;1.50;;
29504;SDS011;16452;54.174;12.092;2022-08-06T05:43:29;9.50;;;4.03;;
29504;SDS011;16452;54.174;12.092;2022-08-06T05:45:57;6.22;;;2.22;;
29504;SDS011;16452;54.174;12.092;2022-08-06T05:48:29;6.43;;;2.13;;
29504;SDS011;16452;54.174;12.092;2022-08-06T05:51:02;3.38;;;1.30;;
29504;SDS011;16452;54.174;12.092;2022-08-06T05:53:57;8.75;;;2.97;;
29504;SDS011;16452;54.174;12.092;2022-08-06T05:56:29;5.35;;;2.00;;
29504;SDS011;16452;54.174;12.092;2022-08-06T05:59:03;5.85;;;2.58;;
29504;SDS011;16452;54.174;12.092;2022-08-06T06:01:51;3.70;;;1.55;;
29504;SDS011;16452;54.174;12.092;2022-08-06T06:04:18;2.75;;;0.85;;
29504;SDS011;16452;54.174;12.092;2022-08-06T06:06:45;2.35;;;0.82;;
29504;SDS011;16452;54.174;12.092;2022-08-06T06:09:11;16.95;;;6.57;;
29504;SDS011;16452;54.174;12.092;2022-08-06T06:11:38;5.60;;;1.60;;
29504;SDS011;16452;54.174;12.092;2022-08-06T06:14:08;8.95;;;2.22;;
29504;SDS011;16452;54.174;12.092;2022-08-06T06:19:36;3.90;;;1.45;;
29504;SDS011;16452;54.174;12.092;2022-08-06T06:25:13;6.82;;;2.10;;
29504;SDS011;16452;54.174;12.092;2022-08-06T06:27:57;4.28;;;1.90;;
29504;SDS011;16452;54.174;12.092;2022-08-06T06:30:50;6.45;;;1.77;;
29504;SDS011;16452;54.174;12.092;2022-08-06T06:33:36;3.83;;;0.98;;
29504;SDS011;16452;54.174;12.092;2022-08-06T06:36:19;6.57;;;2.72;;
29504;SDS011;16452;54.174;12.092;2022-08-06T06:38:55;5.97;;;2.10;;
29504;SDS011;16452;54.174;12.092;2022-08-06T06:41:35;3.45;;;1.20;;
29504;SDS011;16452;54.174;12.092;2022-08-06T06:44:19;6.05;;;1.10;;
29504;SDS011;16452;54.174;12.092;2022-08-06T06:49:34;4.90;;;1.20;;
29504;SDS011;16452;54.174;12.092;2022-08-06T06:52:11;4.40;;;1.10;;
29504;SDS011;16452;54.174;12.092;2022-08-06T06:55:06;4.57;;;1.20;;
29504;SDS011;16452;54.174;12.092;2022-08-06T06:57:40;7.20;;;1.20;;
29504;SDS011;16452;54.174;12.092;2022-08-06T07:00:12;3.97;;;1.40;;
29504;SDS011;16452;54.174;12.092;2022-08-06T07:02:39;2.45;;;0.90;;
29504;SDS011;16452;54.174;12.092;2022-08-06T07:05:07;2.15;;;0.90;;
29504;SDS011;16452;54.174;12.092;2022-08-06T07:07:37;3.78;;;0.62;;
29504;SDS011;16452;54.174;12.092;2022-08-06T07:10:05;2.58;;;0.82;;
29504;SDS011;16452;54.174;12.092;2022-08-06T07:12:34;4.13;;;1.00;;
29504;SDS011;16452;54.174;12.092;2022-08-06T07:15:02;7.55;;;1.67;;
29504;SDS011;16452;54.174;12.092;2022-08-06T07:17:31;4.90;;;1.10;;
29504;SDS011;16452;54.174;12.092;2022-08-06T07:20:00;4.50;;;1.10;;
29504;SDS011;16452;54.174;12.092;2022-08-06T07:22:32;5.00;;;1.10;;
29504;SDS011;16452;54.174;12.092;2022-08-06T07:25:03;4.88;;;1.10;;
29504;SDS011;16452;54.174;12.092;2022-08-06T07:27:38;4.80;;;1.20;;
29504;SDS011;16452;54.174;12.092;2022-08-06T07:30:09;5.18;;;1.80;;
29504;SDS011;16452;54.174;12.092;2022-08-06T07:32:38;6.25;;;1.40;;
29504;SDS011;16452;54.174;12.092;2022-08-06T07:35:05;4.35;;;1.30;;
29504;SDS011;16452;54.174;12.092;2022-08-06T07:37:34;5.07;;;1.38;;
29504;SDS011;16452;54.174;12.092;2022-08-06T07:40:03;4.68;;;1.40;;
29504;SDS011;16452;54.174;12.092;2022-08-06T07:42:34;4.78;;;1.27;;
29504;SDS011;16452;54.174;12.092;2022-08-06T07:45:05;3.78;;;1.27;;
29504;SDS011;16452;54.174;12.092;2022-08-06T07:47:37;3.80;;;1.38;;
29504;SDS011;16452;54.174;12.092;2022-08-06T07:50:09;6.55;;;1.27;;
29504;SDS011;16452;54.174;12.092;2022-08-06T07:52:38;3.88;;;0.93;;
29504;SDS011;16452;54.174;12.092;2022-08-06T07:55:07;7.47;;;2.20;;
29504;SDS011;16452;54.174;12.092;2022-08-06T07:57:37;4.28;;;1.15;;
29504;SDS011;16452;54.174;12.092;2022-08-06T08:00:04;7.72;;;2.05;;
29504;SDS011;16452;54.174;12.092;2022-08-06T08:02:31;5.25;;;1.67;;
29504;SDS011;16452;54.174;12.092;2022-08-06T08:04:57;6.43;;;1.75;;
29504;SDS011;16452;54.174;12.092;2022-08-06T08:07:42;4.25;;;2.00;;
29504;SDS011;16452;54.174;12.092;2022-08-06T08:10:11;7.20;;;3.42;;
29504;SDS011;16452;54.174;12.092;2022-08-06T08:12:38;5.65;;;2.42;;
29504;SDS011;16452;54.174;12.092;2022-08-06T08:15:06;4.32;;;2.00;;
29504;SDS011;16452;54.174;12.092;2022-08-06T08:17:33;6.97;;;2.00;;
29504;SDS011;16452;54.174;12.092;2022-08-06T08:20:06;11.45;;;2.63;;
29504;SDS011;16452;54.174;12.092;2022-08-06T08:22:33;5.55;;;1.63;;
29504;SDS011;16452;54.174;12.092;2022-08-06T08:25:00;6.47;;;1.52;;
29504;SDS011;16452;54.174;12.092;2022-08-06T08:27:26;4.88;;;1.33;;
29504;SDS011;16452;54.174;12.092;2022-08-06T08:29:51;3.70;;;2.20;;
29504;SDS011;16452;54.174;12.092;2022-08-06T08:32:17;7.15;;;2.17;;
29504;SDS011;16452;54.174;12.092;2022-08-06T08:34:44;4.97;;;1.92;;
29504;SDS011;16452;54.174;12.092;2022-08-06T08:37:10;3.58;;;1.80;;
29504;SDS011;16452;54.174;12.092;2022-08-06T08:39:36;8.45;;;2.60;;
29504;SDS011;16452;54.174;12.092;2022-08-06T08:42:09;4.45;;;1.83;;
29504;SDS011;16452;54.174;12.092;2022-08-06T08:44:38;5.40;;;1.70;;
29504;SDS011;16452;54.174;12.092;2022-08-06T08:47:07;3.58;;;1.25;;
29504;SDS011;16452;54.174;12.092;2022-08-06T08:49:37;7.60;;;1.80;;
29504;SDS011;16452;54.174;12.092;2022-08-06T08:52:18;8.73;;;4.78;;
29504;SDS011;16452;54.174;12.092;2022-08-06T08:54:54;5.55;;;1.55;;
29504;SDS011;16452;54.174;12.092;2022-08-06T08:57:24;4.32;;;1.48;;
29504;SDS011;16452;54.174;12.092;2022-08-06T08:59:51;5.28;;;1.75;;
29504;SDS011;16452;54.174;12.092;2022-08-06T09:02:17;3.72;;;1.63;;
29504;SDS011;16452;54.174;12.092;2022-08-06T09:04:43;6.53;;;1.73;;
29504;SDS011;16452;54.174;12.092;2022-08-06T09:07:10;8.80;;;2.72;;
29504;SDS011;16452;54.174;12.092;2022-08-06T09:09:36;6.07;;;1.27;;
29504;SDS011;16452;54.174;12.092;2022-08-06T09:12:04;3.47;;;1.92;;
29504;SDS011;16452;54.174;12.092;2022-08-06T09:14:32;7.85;;;2.15;;
29504;SDS011;16452;54.174;12.092;2022-08-06T09:17:02;7.00;;;2.45;;
29504;SDS011;16452;54.174;12.092;2022-08-06T09:19:30;3.83;;;1.40;;
29504;SDS011;16452;54.174;12.092;2022-08-06T09:21:57;7.05;;;1.65;;
29504;SDS011;16452;54.174;12.092;2022-08-06T09:24:24;5.20;;;1.50;;
29504;SDS011;16452;54.174;12.092;2022-08-06T09:29:36;3.58;;;1.63;;
29504;SDS011;16452;54.174;12.092;2022-08-06T09:35:22;4.70;;;1.50;;
29504;SDS011;16452;54.174;12.092;2022-08-06T09:38:00;3.80;;;1.52;;
29504;SDS011;16452;54.174;12.092;2022-08-06T09:40:35;4.72;;;1.70;;
29504;SDS011;16452;54.174;12.092;2022-08-06T09:43:01;5.63;;;2.63;;
29504;SDS011;16452;54.174;12.092;2022-08-06T09:45:30;12.20;;;2.28;;
29504;SDS011;16452;54.174;12.092;2022-08-06T09:47:59;7.25;;;1.95;;
29504;SDS011;16452;54.174;12.092;2022-08-06T09:50:35;5.07;;;1.70;;
29504;SDS011;16452;54.174;12.092;2022-08-06T09:53:13;5.05;;;2.40;;
29504;SDS011;16452;54.174;12.092;2022-08-06T09:55:41;5.10;;;1.90;;
29504;SDS011;16452;54.174;12.092;2022-08-06T09:58:07;4.45;;;1.85;;
29504;SDS011;16452;54.174;12.092;2022-08-06T10:00:33;4.88;;;2.30;;
29504;SDS011;16452;54.174;12.092;2022-08-06T10:03:03;4.10;;;2.10;;
29504;SDS011;16452;54.174;12.092;2022-08-06T10:05:32;9.55;;;2.78;;
29504;SDS011;16452;54.174;12.092;2022-08-06T10:08:03;4.38;;;2.30;;
29504;SDS011;16452;54.174;12.092;2022-08-06T10:10:44;6.72;;;3.30;;
29504;SDS011;16452;54.174;12.092;2022-08-06T10:15:51;7.53;;;3.38;;
29504;SDS011;16452;54.174;12.092;2022-08-06T10:21:21;11.52;;;3.47;;
29504;SDS011;16452;54.174;12.092;2022-08-06T10:23:50;7.90;;;3.13;;
29504;SDS011;16452;54.174;12.092;2022-08-06T10:26:25;6.50;;;3.50;;
29504;SDS011;16452;54.174;12.092;2022-08-06T10:28:54;10.98;;;3.25;;
29504;SDS011;16452;54.174;12.092;2022-08-06T10:31:32;4.93;;;2.80;;
29504;SDS011;16452;54.174;12.092;2022-08-06T10:34:00;9.02;;;2.05;;
29504;SDS011;16452;54.174;12.092;2022-08-06T10:36:36;9.55;;;3.97;;
29504;SDS011;16452;54.174;12.092;2022-08-06T10:39:10;6.82;;;3.20;;
29504;SDS011;16452;54.174;12.092;2022-08-06T10:41:39;5.60;;;2.35;;
29504;SDS011;16452;54.174;12.092;2022-08-06T10:44:06;4.45;;;2.60;;
29504;SDS011;16452;54.174;12.092;2022-08-06T10:46:33;7.53;;;3.75;;
29504;SDS011;16452;54.174;12.092;2022-08-06T10:49:00;6.80;;;2.95;;
29504;SDS011;16452;54.174;12.092;2022-08-06T10:51:26;7.93;;;3.53;;
29504;SDS011;16452;54.174;12.092;2022-08-06T10:53:53;7.80;;;2.97;;
29504;SDS011;16452;54.174;12.092;2022-08-06T10:56:19;2.92;;;1.95;;
29504;SDS011;16452;54.174;12.092;2022-08-06T10:58:45;8.20;;;3.00;;
29504;SDS011;16452;54.174;12.092;2022-08-06T11:10:44;7.28;;;3.50;;
29504;SDS011;16452;54.174;12.092;2022-08-06T11:13:53;4.95;;;2.70;;
29504;SDS011;16452;54.174;12.092;2022-08-06T11:16:34;11.57;;;3.47;;
29504;SDS011;16452;54.174;12.092;2022-08-06T11:19:03;5.95;;;2.80;;
29504;SDS011;16452;54.174;12.092;2022-08-06T11:21:42;7.43;;;4.00;;
29504;SDS011;16452;54.174;12.092;2022-08-06T11:24:11;6.63;;;2.67;;
29504;SDS011;16452;54.174;12.092;2022-08-06T11:26:42;5.45;;;3.10;;
29504;SDS011;16452;54.174;12.092;2022-08-06T11:29:12;9.25;;;3.60;;
29504;SDS011;16452;54.174;12.092;2022-08-06T11:31:44;8.30;;;3.38;;
29504;SDS011;16452;54.174;12.092;2022-08-06T11:34:17;6.10;;;3.10;;
29504;SDS011;16452;54.174;12.092;2022-08-06T11:39:23;9.52;;;6.20;;
29504;SDS011;16452;54.174;12.092;2022-08-06T11:41:51;8.00;;;4.47;;
29504;SDS011;16452;54.174;12.092;2022-08-06T11:44:26;5.63;;;2.97;;
29504;SDS011;16452;54.174;12.092;2022-08-06T11:49:39;6.90;;;3.72;;
29504;SDS011;16452;54.174;12.092;2022-08-06T11:52:06;6.32;;;3.63;;
29504;SDS011;16452;54.174;12.092;2022-08-06T11:54:34;11.02;;;7.65;;
29504;SDS011;16452;54.174;12.092;2022-08-06T11:57:20;9.82;;;4.93;;
29504;SDS011;16452;54.174;12.092;2022-08-06T12:07:41;10.35;;;4.43;;
29504;SDS011;16452;54.174;12.092;2022-08-06T12:10:12;10.60;;;4.53;;
29504;SDS011;16452;54.174;12.092;2022-08-06T12:12:43;9.85;;;3.78;;
29504;SDS011;16452;54.174;12.092;2022-08-06T12:17:37;5.50;;;3.40;;
29504;SDS011;16452;54.174;12.092;2022-08-06T12:23:11;8.50;;;4.38;;
29504;SDS011;16452;54.174;12.092;2022-08-06T12:25:40;11.98;;;5.22;;
29504;SDS011;16452;54.174;12.092;2022-08-06T12:28:12;6.82;;;5.00;;
29504;SDS011;16452;54.174;12.092;2022-08-06T12:30:44;6.43;;;3.25;;
29504;SDS011;16452;54.174;12.092;2022-08-06T12:33:14;11.10;;;4.43;;
29504;SDS011;16452;54.174;12.092;2022-08-06T12:35:57;11.40;;;5.60;;
29504;SDS011;16452;54.174;12.092;2022-08-06T12:38:29;8.68;;;4.72;;
29504;SDS011;16452;54.174;12.092;2022-08-06T12:43:33;8.95;;;4.32;;
29504;SDS011;16452;54.174;12.092;2022-08-06T12:46:06;9.07;;;3.28;;
29504;SDS011;16452;54.174;12.092;2022-08-06T12:48:33;7.18;;;4.30;;
29504;SDS011;16452;54.174;12.092;2022-08-06T12:51:05;9.20;;;6.45;;
29504;SDS011;16452;54.174;12.092;2022-08-06T12:53:40;12.63;;;6.13;;
29504;SDS011;16452;54.174;12.092;2022-08-06T12:56:22;8.13;;;4.05;;
29504;SDS011;16452;54.174;12.092;2022-08-06T12:58:49;10.20;;;3.90;;
29504;SDS011;16452;54.174;12.092;2022-08-06T13:01:18;18.63;;;8.57;;
29504;SDS011;16452;54.174;12.092;2022-08-06T13:03:50;8.00;;;4.15;;
29504;SDS011;16452;54.174;12.092;2022-08-06T13:06:21;13.00;;;4.38;;
29504;SDS011;16452;54.174;12.092;2022-08-06T13:08:52;4.93;;;3.70;;
29504;SDS011;16452;54.174;12.092;2022-08-06T13:11:19;8.77;;;4.45;;
29504;SDS011;16452;54.174;12.092;2022-08-06T13:13:46;9.05;;;5.00;;
29504;SDS011;16452;54.174;12.092;2022-08-06T13:16:16;8.82;;;4.57;;
29504;SDS011;16452;54.174;12.092;2022-08-06T13:19:01;8.23;;;4.00;;
29504;SDS011;16452;54.174;12.092;2022-08-06T13:21:31;8.57;;;5.97;;
29504;SDS011;16452;54.174;12.092;2022-08-06T13:23:57;10.63;;;5.70;;
29504;SDS011;16452;54.174;12.092;2022-08-06T13:26:24;7.53;;;4.05;;
29504;SDS011;16452;54.174;12.092;2022-08-06T13:31:34;8.93;;;4.55;;
29504;SDS011;16452;54.174;12.092;2022-08-06T13:34:01;6.90;;;4.20;;
29504;SDS011;16452;54.174;12.092;2022-08-06T13:36:52;4.57;;;3.70;;
29504;SDS011;16452;54.174;12.092;2022-08-06T13:39:24;6.93;;;4.10;;
29504;SDS011;16452;54.174;12.092;2022-08-06T13:42:07;6.60;;;4.18;;
29504;SDS011;16452;54.174;12.092;2022-08-06T13:44:39;8.02;;;4.78;;
29504;SDS011;16452;54.174;12.092;2022-08-06T13:47:10;8.95;;;4.43;;
29504;SDS011;16452;54.174;12.092;2022-08-06T13:49:41;13.85;;;4.90;;
29504;SDS011;16452;54.174;12.092;2022-08-06T13:52:08;10.48;;;6.82;;
29504;SDS011;16452;54.174;12.092;2022-08-06T13:54:39;8.43;;;4.68;;
29504;SDS011;16452;54.174;12.092;2022-08-06T13:57:05;10.07;;;4.80;;
29504;SDS011;16452;54.174;12.092;2022-08-06T13:59:31;10.32;;;5.65;;
29504;SDS011;16452;54.174;12.092;2022-08-06T14:01:57;8.75;;;5.88;;
29504;SDS011;16452;54.174;12.092;2022-08-06T14:04:26;10.70;;;4.80;;
29504;SDS011;16452;54.174;12.092;2022-08-06T14:06:53;10.00;;;5.00;;
29504;SDS011;16452;54.174;12.092;2022-08-06T14:09:21;11.35;;;5.18;;
29504;SDS011;16452;54.174;12.092;2022-08-06T14:11:51;8.95;;;5.00;;
29504;SDS011;16452;54.174;12.092;2022-08-06T14:14:23;8.63;;;4.63;;
29504;SDS011;16452;54.174;12.092;2022-08-06T14:16:51;5.03;;;4.40;;
29504;SDS011;16452;54.174;12.092;2022-08-06T14:19:19;6.82;;;4.55;;
29504;SDS011;16452;54.174;12.092;2022-08-06T14:21:45;7.53;;;5.22;;
29504;SDS011;16452;54.174;12.092;2022-08-06T14:24:11;7.85;;;5.20;;
29504;SDS011;16452;54.174;12.092;2022-08-06T14:26:37;11.45;;;5.10;;
29504;SDS011;16452;54.174;12.092;2022-08-06T14:29:03;7.25;;;4.38;;
29504;SDS011;16452;54.174;12.092;2022-08-06T14:31:32;10.38;;;4.65;;
29504;SDS011;16452;54.174;12.092;2022-08-06T14:33:58;8.80;;;4.85;;
29504;SDS011;16452;54.174;12.092;2022-08-06T14:36:25;8.80;;;4.20;;
29504;SDS011;16452;54.174;12.092;2022-08-06T14:38:55;7.07;;;3.60;;
29504;SDS011;16452;54.174;12.092;2022-08-06T14:41:22;7.32;;;3.50;;
29504;SDS011;16452;54.174;12.092;2022-08-06T14:44:06;8.05;;;4.20;;
29504;SDS011;16452;54.174;12.092;2022-08-06T14:46:52;7.30;;;4.20;;
29504;SDS011;16452;54.174;12.092;2022-08-06T14:49:18;10.02;;;4.57;;
29504;SDS011;16452;54.174;12.092;2022-08-06T14:51:44;16.30;;;11.73;;
29504;SDS011;16452;54.174;12.092;2022-08-06T14:54:10;14.18;;;7.00;;
29504;SDS011;16452;54.174;12.092;2022-08-06T14:56:36;9.57;;;4.10;;
29504;SDS011;16452;54.174;12.092;2022-08-06T14:59:01;8.00;;;3.63;;
29504;SDS011;16452;54.174;12.092;2022-08-06T15:01:27;7.57;;;4.40;;
29504;SDS011;16452;54.174;12.092;2022-08-06T15:03:53;9.20;;;5.18;;
29504;SDS011;16452;54.174;12.092;2022-08-06T15:06:19;11.68;;;5.22;;
29504;SDS011;16452;54.174;12.092;2022-08-06T15:08:45;6.00;;;4.47;;
29504;SDS011;16452;54.174;12.092;2022-08-06T15:11:11;12.07;;;4.90;;
29504;SDS011;16452;54.174;12.092;2022-08-06T15:13:36;12.85;;;6.15;;
29504;SDS011;16452;54.174;12.092;2022-08-06T15:16:03;9.10;;;4.55;;
29504;SDS011;16452;54.174;12.092;2022-08-06T15:18:30;9.93;;;5.78;;
29504;SDS011;16452;54.174;12.092;2022-08-06T15:20:56;7.20;;;4.15;;
29504;SDS011;16452;54.174;12.092;2022-08-06T15:23:22;8.63;;;5.20;;
29504;SDS011;16452;54.174;12.092;2022-08-06T15:25:47;9.93;;;5.15;;
29504;SDS011;16452;54.174;12.092;2022-08-06T15:28:13;6.80;;;3.97;;
29504;SDS011;16452;54.174;12.092;2022-08-06T15:30:41;21.25;;;7.28;;
29504;SDS011;16452;54.174;12.092;2022-08-06T15:33:07;13.52;;;5.60;;
29504;SDS011;16452;54.174;12.092;2022-08-06T15:35:32;8.60;;;5.25;;
29504;SDS011;16452;54.174;12.092;2022-08-06T15:37:58;12.57;;;7.13;;
29504;SDS011;16452;54.174;12.092;2022-08-06T15:40:24;10.73;;;5.45;;
29504;SDS011;16452;54.174;12.092;2022-08-06T15:42:50;9.07;;;5.22;;
29504;SDS011;16452;54.174;12.092;2022-08-06T15:45:16;11.32;;;5.85;;
29504;SDS011;16452;54.174;12.092;2022-08-06T15:47:41;12.27;;;5.43;;
29504;SDS011;16452;54.174;12.092;2022-08-06T15:50:07;6.43;;;4.82;;
29504;SDS011;16452;54.174;12.092;2022-08-06T15:52:34;13.13;;;5.65;;
29504;SDS011;16452;54.174;12.092;2022-08-06T15:55:01;10.27;;;5.68;;
29504;SDS011;16452;54.174;12.092;2022-08-06T15:57:29;10.98;;;6.20;;